Time;durP1;ratioP1;P1;durP2;ratioP2;P2;SDS_P1;SDS_P2;PMS_P1;PMS_P2;Temp;Humidity;BMP_temperature;BMP_pressure;BME280_temperature;BME280_humidity;BME280_pressure;Samples;Min_cycle;Max_cycle;Signal;HPM_P1;HPM_P2
2022/01/16 00:04:06;;;;;;;31.23;11.35;;;7.60;92.90;;;;;;5034664;28;20037;-74
2022/01/16 00:04:54;;;;;;;28.92;11.38;;;7.50;93.00;;;;;;5025504;28;20362;-74
2022/01/16 00:07:20;;;;;;;38.67;15.07;;;7.50;93.00;;;;;;5033875;28;20031;-74
2022/01/16 00:09:45;;;;;;;22.17;9.60;;;7.40;92.90;;;;;;5034684;28;20493;-74
2022/01/16 00:12:11;;;;;;;28.35;12.32;;;7.30;93.00;;;;;;5034451;28;20029;-74
2022/01/16 00:14:39;;;;;;;28.58;10.65;;;7.30;93.10;;;;;;5033571;28;20053;-75
2022/01/16 00:17:05;;;;;;;36.65;13.38;;;7.30;93.10;;;;;;5022691;28;20088;-74
2022/01/16 00:19:30;;;;;;;21.23;8.80;;;7.30;93.20;;;;;;5033815;28;20041;-74
2022/01/16 00:21:57;;;;;;;13.25;5.50;;;7.20;93.20;;;;;;5034058;28;20029;-74
2022/01/16 00:24:23;;;;;;;17.35;6.70;;;7.10;93.20;;;;;;5021578;28;20041;-74
2022/01/16 00:26:49;;;;;;;32.97;11.80;;;7.20;93.30;;;;;;5033855;28;20094;-75
2022/01/16 00:29:17;;;;;;;30.70;10.30;;;7.20;93.30;;;;;;5025123;28;20505;-74
2022/01/16 00:31:44;;;;;;;30.33;12.82;;;7.10;93.20;;;;;;5028565;28;20073;-74
2022/01/16 00:34:11;;;;;;;30.13;11.00;;;7.10;93.20;;;;;;5034301;28;20130;-74
2022/01/16 00:36:37;;;;;;;26.10;12.10;;;7.10;93.10;;;;;;5033395;28;20052;-74
2022/01/16 00:39:04;;;;;;;19.90;8.57;;;7.10;93.00;;;;;;5026167;28;20473;-74
2022/01/16 00:41:30;;;;;;;30.33;11.77;;;7.10;93.10;;;;;;5029233;28;20033;-74
2022/01/16 00:43:55;;;;;;;31.45;11.60;;;7.00;93.10;;;;;;5033912;28;20032;-74
2022/01/16 00:46:22;;;;;;;24.95;8.57;;;7.00;93.10;;;;;;5033688;28;20025;-74
2022/01/16 00:48:50;;;;;;;16.65;8.05;;;7.00;93.10;;;;;;5033029;28;20033;-74
2022/01/16 00:51:16;;;;;;;20.08;8.40;;;7.00;93.20;;;;;;5033447;28;20488;-74
2022/01/16 00:53:43;;;;;;;22.40;8.35;;;6.90;93.20;;;;;;5033964;28;20026;-74
2022/01/16 00:56:09;;;;;;;11.63;3.72;;;7.00;93.20;;;;;;5033028;28;20061;-74
2022/01/16 00:58:35;;;;;;;17.65;8.52;;;6.90;93.20;;;;;;5033685;28;20473;-74
2022/01/16 01:01:00;;;;;;;34.03;11.55;;;7.00;93.10;;;;;;5033321;28;20035;-74
2022/01/16 01:03:26;;;;;;;29.80;12.65;;;6.90;93.00;;;;;;5033160;28;20030;-74
2022/01/16 01:05:52;;;;;;;29.77;11.50;;;6.90;92.90;;;;;;5033376;28;20432;-74
2022/01/16 01:08:19;;;;;;;31.75;10.43;;;6.90;92.90;;;;;;5033051;28;20021;-74
2022/01/16 01:10:49;;;;;;;29.77;12.27;;;6.80;92.80;;;;;;5032186;28;20040;-74
2022/01/16 01:16:02;;;;;;;32.35;11.52;;;6.70;92.90;;;;;;5033012;28;20029;-74
2022/01/16 01:18:30;;;;;;;29.60;13.60;;;6.70;93.00;;;;;;5032887;28;20358;-74
2022/01/16 01:20:57;;;;;;;24.30;9.00;;;6.60;93.00;;;;;;5033065;28;20484;-74
2022/01/16 01:23:24;;;;;;;35.20;12.60;;;6.60;93.00;;;;;;5033231;28;20473;-73
2022/01/16 01:25:50;;;;;;;38.47;15.70;;;6.50;93.30;;;;;;5032199;28;20099;-73
2022/01/16 01:28:18;;;;;;;27.73;11.57;;;6.50;93.10;;;;;;5033172;28;20469;-73
2022/01/16 01:30:45;;;;;;;26.27;9.93;;;6.50;93.00;;;;;;5031950;28;20052;-73
2022/01/16 01:33:13;;;;;;;30.67;12.10;;;6.40;93.10;;;;;;5020954;28;20100;-74
2022/01/16 01:35:39;;;;;;;32.15;12.73;;;6.40;93.20;;;;;;5032945;28;20067;-73
2022/01/16 01:38:10;;;;;;;34.60;14.70;;;6.40;93.10;;;;;;5019628;28;20033;-73
2022/01/16 01:40:38;;;;;;;41.67;14.18;;;6.30;93.10;;;;;;5025256;28;20046;-74
2022/01/16 01:51:01;;;;;;;13.55;5.47;;;6.30;93.10;;;;;;5028368;28;20026;-73
2022/01/16 01:51:36;;;;;;;17.77;7.40;;;6.30;93.30;;;;;;5032827;28;20036;-73
2022/01/16 01:54:04;;;;;;;33.08;13.35;;;6.30;93.30;;;;;;5032558;28;20021;-73
2022/01/16 01:56:29;;;;;;;28.27;10.95;;;6.30;93.40;;;;;;5032956;28;20109;-73
2022/01/16 01:58:58;;;;;;;38.33;15.68;;;6.30;93.20;;;;;;5031862;28;20498;-73
2022/01/16 02:01:25;;;;;;;33.67;13.65;;;6.30;93.10;;;;;;5032710;28;20110;-73
2022/01/16 02:03:50;;;;;;;29.90;12.30;;;6.20;93.10;;;;;;5032340;28;20029;-73
2022/01/16 02:06:24;;;;;;;43.55;19.35;;;6.20;93.10;;;;;;5024652;28;20049;-73
2022/01/16 02:08:51;;;;;;;;;;;6.20;93.10;;;;;;5029836;28;20073;-73
2022/01/16 02:11:19;;;;;;;23.67;9.82;;;6.10;93.10;;;;;;5032452;28;19924;-73
2022/01/16 02:35:40;;;;;;;46.97;16.67;;;6.30;93.40;;;;;;5035856;28;20116;-73
2022/01/16 02:38:08;;;;;;;41.10;14.70;;;6.40;93.40;;;;;;5036131;28;20044;-73
2022/01/16 02:40:36;;;;;;;15.95;6.60;;;6.50;93.40;;;;;;5036395;28;20397;-74
2022/01/16 02:43:02;;;;;;;25.65;9.98;;;6.50;93.30;;;;;;5034318;28;20025;-73
2022/01/16 02:45:29;;;;;;;40.40;14.07;;;6.50;93.30;;;;;;5036324;28;20033;-74
2022/01/16 02:47:58;;;;;;;27.55;10.73;;;6.60;93.30;;;;;;5023849;28;20116;-74
2022/01/16 02:50:23;;;;;;;25.45;10.13;;;6.60;93.20;;;;;;5035982;28;20591;-73
2022/01/16 02:52:49;;;;;;;24.13;9.95;;;6.60;93.10;;;;;;5022716;28;20120;-73
2022/01/16 02:55:16;;;;;;;28.42;10.90;;;6.70;93.00;;;;;;5035383;28;20033;-73
2022/01/16 02:57:42;;;;;;;26.70;10.50;;;6.70;93.00;;;;;;5035595;28;20461;-74
2022/01/16 03:00:11;;;;;;;27.38;10.10;;;6.70;93.00;;;;;;5036190;28;20109;-74
2022/01/16 03:02:37;;;;;;;34.80;11.75;;;6.80;93.00;;;;;;5034698;28;20530;-74
2022/01/16 03:05:03;;;;;;;28.08;9.02;;;6.80;92.90;;;;;;5035837;28;20073;-74
2022/01/16 03:07:29;;;;;;;22.23;10.57;;;6.80;92.80;;;;;;5023326;28;20018;-73
2022/01/16 03:12:37;;;;;;;43.60;15.45;;;6.80;92.70;;;;;;5035651;28;20108;-74
2022/01/16 03:15:04;;;;;;;22.35;8.07;;;6.80;92.60;;;;;;5035588;28;20603;-73
2022/01/16 03:17:51;;;;;;;32.10;13.38;;;6.70;92.50;;;;;;5018687;28;20037;-73
2022/01/16 03:23:03;;;;;;;30.30;11.75;;;6.70;92.50;;;;;;5024579;28;20029;-73
2022/01/16 03:25:29;;;;;;;13.43;7.45;;;6.70;92.60;;;;;;5035004;28;20139;-73
2022/01/16 03:27:55;;;;;;;23.88;10.02;;;6.70;92.70;;;;;;5034609;28;20025;-74
2022/01/16 03:30:20;;;;;;;26.67;7.25;;;6.60;92.60;;;;;;5034340;28;20045;-74
2022/01/16 03:32:46;;;;;;;27.48;8.00;;;6.70;92.50;;;;;;5034954;28;20362;-74
2022/01/16 03:35:11;;;;;;;13.25;6.93;;;6.60;92.40;;;;;;5029867;28;20037;-73
2022/01/16 03:37:37;;;;;;;14.20;7.03;;;6.60;92.50;;;;;;5032847;28;20934;-73
2022/01/16 03:40:06;;;;;;;25.98;8.65;;;6.50;92.50;;;;;;5035147;28;20466;-73
2022/01/16 03:42:35;;;;;;;15.05;6.95;;;6.50;92.60;;;;;;5034992;28;20029;-74
2022/01/16 03:45:01;;;;;;;26.73;7.47;;;6.50;92.60;;;;;;5033924;28;20033;-74
2022/01/16 03:47:29;;;;;;;28.75;12.07;;;6.50;92.60;;;;;;5035145;28;20060;-73
2022/01/16 03:49:55;;;;;;;24.73;10.30;;;6.50;92.70;;;;;;5034406;28;20041;-74
2022/01/16 03:52:20;;;;;;;32.72;12.77;;;6.50;92.70;;;;;;5034224;28;20022;-73
2022/01/16 03:54:46;;;;;;;24.50;7.40;;;6.40;92.70;;;;;;5032689;28;20476;-73
2022/01/16 03:57:12;;;;;;;38.65;13.75;;;6.40;92.60;;;;;;5031601;28;20040;-74
2022/01/16 03:59:37;;;;;;;42.83;14.32;;;6.40;92.60;;;;;;5033518;28;20029;-73
2022/01/16 04:02:04;;;;;;;8.65;5.70;;;6.40;92.60;;;;;;5021680;28;20057;-74
2022/01/16 04:04:30;;;;;;;34.75;13.23;;;6.30;92.70;;;;;;5034291;28;20037;-73
2022/01/16 04:06:56;;;;;;;18.70;9.23;;;6.30;92.70;;;;;;5033703;28;20052;-73
2022/01/16 04:09:22;;;;;;;46.80;14.45;;;6.30;92.80;;;;;;5034213;28;20489;-74
2022/01/16 04:11:52;;;;;;;29.02;10.90;;;6.20;92.90;;;;;;5034533;28;20033;-74
2022/01/16 04:17:06;;;;;;;25.80;9.13;;;6.20;92.90;;;;;;5034602;28;20635;-73
2022/01/16 04:19:31;;;;;;;16.85;4.78;;;6.20;93.00;;;;;;5033992;28;20033;-73
2022/01/16 04:21:57;;;;;;;50.40;17.00;;;6.10;93.00;;;;;;5034249;28;20029;-73
2022/01/16 04:24:23;;;;;;;33.45;14.23;;;6.10;93.00;;;;;;5034193;28;20029;-73
2022/01/16 04:26:51;;;;;;;52.40;19.55;;;6.10;93.10;;;;;;5020970;28;20045;-73
2022/01/16 04:29:17;;;;;;;28.27;11.40;;;6.10;93.10;;;;;;5033485;28;20073;-73
2022/01/16 04:31:42;;;;;;;41.83;12.65;;;6.10;93.20;;;;;;5033752;28;20068;-74
2022/01/16 04:34:08;;;;;;;49.28;18.23;;;6.00;93.20;;;;;;5033431;28;20441;-73
2022/01/16 04:36:33;;;;;;;36.17;13.75;;;6.00;93.30;;;;;;5033946;28;20075;-73
2022/01/16 04:38:59;;;;;;;32.15;12.52;;;6.00;93.30;;;;;;5034324;28;20048;-73
2022/01/16 04:44:09;;;;;;;46.15;17.50;;;5.90;93.40;;;;;;5033276;28;20717;-73
2022/01/16 04:46:35;;;;;;;27.75;12.40;;;5.90;93.50;;;;;;5033765;28;20104;-73
2022/01/16 04:49:02;;;;;;;47.72;19.70;;;5.90;93.50;;;;;;5033204;28;20090;-73
2022/01/16 04:51:30;;;;;;;43.50;14.30;;;5.90;93.60;;;;;;5033757;28;20132;-73
2022/01/16 04:53:56;;;;;;;41.67;15.40;;;5.90;93.60;;;;;;5022383;28;20030;-73
2022/01/16 04:56:22;;;;;;;24.65;9.48;;;5.90;93.60;;;;;;5032169;28;20065;-73
2022/01/16 04:58:48;;;;;;;54.88;17.55;;;5.90;93.70;;;;;;5022296;28;20076;-73
2022/01/16 05:01:15;;;;;;;27.25;10.10;;;5.90;93.70;;;;;;5033420;28;20040;-73
2022/01/16 05:03:41;;;;;;;47.63;17.67;;;5.90;93.70;;;;;;5032725;28;20091;-73
2022/01/16 05:06:07;;;;;;;43.17;15.40;;;5.90;93.70;;;;;;5033726;28;20548;-73
2022/01/16 05:08:33;;;;;;;46.53;15.93;;;5.90;93.70;;;;;;5032840;28;20393;-74
2022/01/16 05:10:59;;;;;;;43.30;14.38;;;6.00;93.80;;;;;;5033451;28;20068;-73
2022/01/16 05:18:50;;;;;;;28.23;8.65;;;6.00;93.80;;;;;;5033142;28;20065;-73
2022/01/16 05:21:17;;;;;;;31.48;12.52;;;6.00;93.70;;;;;;5033104;28;20036;-73
2022/01/16 05:23:42;;;;;;;18.25;7.43;;;6.00;93.80;;;;;;5032393;28;20041;-73
2022/01/16 05:26:13;;;;;;;41.88;14.18;;;6.00;93.70;;;;;;5020578;28;20056;-73
2022/01/16 05:28:39;;;;;;;34.63;13.18;;;6.10;93.80;;;;;;5033310;28;20052;-73
2022/01/16 05:31:06;;;;;;;53.13;15.93;;;6.20;93.80;;;;;;5031380;28;20476;-73
2022/01/16 05:33:32;;;;;;;24.55;11.68;;;6.20;93.70;;;;;;5022086;28;20104;-73
2022/01/16 05:35:58;;;;;;;45.38;15.70;;;6.20;93.60;;;;;;5032838;28;20029;-73
2022/01/16 05:38:24;;;;;;;27.88;10.57;;;6.30;93.60;;;;;;5032666;28;20381;-73
2022/01/16 05:40:49;;;;;;;33.92;12.40;;;6.20;93.50;;;;;;5032779;28;20384;-73
2022/01/16 05:43:15;;;;;;;52.75;18.90;;;6.30;93.50;;;;;;5032858;28;20036;-73
2022/01/16 05:45:41;;;;;;;25.15;7.68;;;6.30;93.40;;;;;;5032159;28;20507;-73
2022/01/16 05:48:07;;;;;;;35.20;13.55;;;6.30;93.30;;;;;;5032692;28;20041;-73
2022/01/16 05:50:33;;;;;;;13.57;5.28;;;6.30;93.40;;;;;;5032709;28;20041;-73
2022/01/16 05:52:59;;;;;;;44.55;16.00;;;6.20;93.40;;;;;;5031822;28;20018;-73
2022/01/16 05:55:33;;;;;;;44.78;17.17;;;6.20;93.70;;;;;;5021470;28;20037;-74
2022/01/16 05:57:59;;;;;;;44.22;14.68;;;6.20;93.50;;;;;;5031658;28;20025;-74
2022/01/16 06:00:24;;;;;;;26.30;10.63;;;6.20;93.60;;;;;;5032523;28;20436;-73
2022/01/16 06:02:50;;;;;;;37.67;12.90;;;6.20;93.60;;;;;;5032136;28;20028;-73
2022/01/16 06:05:16;;;;;;;43.70;14.63;;;6.10;93.70;;;;;;5031623;28;20042;-73
2022/01/16 06:07:51;;;;;;;26.83;8.77;;;6.20;93.70;;;;;;5032830;28;20033;-73
2022/01/16 06:10:17;;;;;;;37.00;14.57;;;6.20;93.80;;;;;;5032360;28;20124;-73
2022/01/16 06:12:42;;;;;;;40.88;14.52;;;6.20;93.80;;;;;;5031898;28;20493;-73
2022/01/16 06:15:08;;;;;;;52.83;18.90;;;6.10;93.80;;;;;;5032204;28;20484;-73
2022/01/16 06:17:37;;;;;;;26.83;11.48;;;6.10;93.80;;;;;;5032482;28;20064;-73
2022/01/16 06:20:03;;;;;;;49.05;16.73;;;6.10;93.80;;;;;;5031604;28;20381;-73
2022/01/16 06:22:29;;;;;;;42.90;13.60;;;6.10;93.90;;;;;;5023243;28;20105;-74
2022/01/16 06:24:55;;;;;;;36.53;14.20;;;6.10;93.90;;;;;;5029202;28;20450;-73
2022/01/16 06:27:20;;;;;;;49.90;15.65;;;6.10;93.90;;;;;;5031979;28;20540;-73
2022/01/16 06:29:46;;;;;;;21.27;9.68;;;6.10;94.00;;;;;;5031870;28;20049;-73
2022/01/16 06:32:12;;;;;;;44.20;14.60;;;6.10;94.30;;;;;;5032421;28;20468;-74
2022/01/16 06:34:40;;;;;;;45.13;16.08;;;6.10;94.10;;;;;;5031266;28;20065;-74
2022/01/16 06:37:06;;;;;;;37.47;13.73;;;6.10;94.10;;;;;;5032574;28;20033;-74
2022/01/16 06:39:32;;;;;;;47.95;15.27;;;6.10;94.20;;;;;;5032247;28;20047;-74
2022/01/16 06:41:57;;;;;;;53.47;19.05;;;6.10;94.20;;;;;;5031364;28;20021;-73
2022/01/16 06:44:23;;;;;;;53.72;17.20;;;6.10;94.20;;;;;;5026418;28;20029;-73
2022/01/16 06:46:49;;;;;;;53.88;16.42;;;6.10;94.30;;;;;;5032149;28;20453;-75
2022/01/16 06:49:15;;;;;;;53.35;18.70;;;6.10;94.40;;;;;;5031118;28;20128;-75
2022/01/16 06:51:41;;;;;;;56.92;17.85;;;6.10;94.40;;;;;;5032443;28;20033;-75
2022/01/16 06:54:06;;;;;;;45.47;16.42;;;6.10;94.50;;;;;;5031546;28;20041;-75
2022/01/16 06:56:32;;;;;;;51.17;16.15;;;6.10;94.50;;;;;;5032315;28;20484;-74
2022/01/16 06:58:59;;;;;;;38.17;14.10;;;6.10;94.60;;;;;;5031000;28;20033;-77
2022/01/16 07:01:26;;;;;;;49.13;18.80;;;6.10;94.70;;;;;;5019606;28;20025;-77
2022/01/16 07:03:55;;;;;;;63.08;19.38;;;6.10;94.70;;;;;;5031899;28;20040;-75
2022/01/16 07:06:21;;;;;;;38.60;11.75;;;6.10;94.70;;;;;;5033122;28;20048;-74
2022/01/16 07:08:47;;;;;;;53.97;19.50;;;6.10;94.80;;;;;;5034860;28;20086;-75
2022/01/16 07:11:12;;;;;;;56.40;19.05;;;6.10;94.80;;;;;;5035938;28;20385;-74
2022/01/16 07:13:38;;;;;;;31.83;13.00;;;6.10;94.80;;;;;;5035431;28;20461;-76
2022/01/16 07:16:05;;;;;;;46.80;13.73;;;6.10;94.90;;;;;;5035124;28;20519;-74
2022/01/16 07:18:30;;;;;;;38.17;16.48;;;6.20;94.90;;;;;;5035603;28;20129;-75
2022/01/16 07:20:59;;;;;;;43.25;15.15;;;6.20;94.90;;;;;;5035734;28;20134;-75
2022/01/16 07:23:25;;;;;;;37.72;12.18;;;6.20;94.90;;;;;;5034438;28;20029;-75
2022/01/16 07:25:52;;;;;;;42.05;16.80;;;6.20;94.90;;;;;;5035429;28;20053;-74
2022/01/16 07:28:19;;;;;;;48.08;15.95;;;6.20;94.90;;;;;;5035254;28;20076;-74
2022/01/16 07:30:46;;;;;;;28.50;13.68;;;6.20;94.90;;;;;;5034548;28;20130;-74
2022/01/16 07:33:12;;;;;;;53.30;16.85;;;6.20;94.90;;;;;;5035267;28;20040;-75
2022/01/16 07:35:38;;;;;;;49.85;17.27;;;6.30;95.00;;;;;;5035445;28;20033;-75
2022/01/16 07:38:08;;;;;;;54.70;18.52;;;6.30;95.00;;;;;;5034490;28;20030;-74
2022/01/16 07:40:34;;;;;;;39.03;14.60;;;6.30;95.00;;;;;;5034788;28;20503;-74
2022/01/16 07:43:00;;;;;;;45.03;19.17;;;6.30;95.00;;;;;;5034970;28;20120;-74
2022/01/16 07:45:26;;;;;;;41.55;15.45;;;6.30;95.00;;;;;;5034599;28;20137;-75
2022/01/16 07:47:52;;;;;;;42.17;14.77;;;6.30;95.00;;;;;;5035024;28;20030;-75
2022/01/16 07:50:18;;;;;;;48.47;19.85;;;6.40;95.00;;;;;;5034881;28;20104;-74
2022/01/16 07:52:44;;;;;;;57.88;18.85;;;6.40;95.00;;;;;;5034088;28;20435;-74
2022/01/16 07:55:10;;;;;;;35.60;13.25;;;6.40;95.00;;;;;;5034387;28;20029;-74
2022/01/16 07:57:37;;;;;;;30.23;13.60;;;6.40;95.10;;;;;;5033594;28;20070;-74
2022/01/16 08:00:04;;;;;;;46.85;15.73;;;6.40;95.10;;;;;;5034918;28;20037;-75
2022/01/16 08:02:38;;;;;;;51.40;19.95;;;6.40;95.10;;;;;;5034611;28;20064;-75
2022/01/16 08:05:04;;;;;;;58.83;22.27;;;6.40;95.10;;;;;;5033675;28;20037;-75
2022/01/16 08:07:33;;;;;;;45.38;16.25;;;6.40;95.20;;;;;;5034057;28;20037;-75
2022/01/16 08:09:59;;;;;;;67.88;23.42;;;6.40;95.20;;;;;;5033744;28;20042;-74
2022/01/16 08:12:24;;;;;;;59.17;20.83;;;6.40;95.30;;;;;;5032673;28;20384;-75
2022/01/16 08:14:50;;;;;;;52.92;21.02;;;6.40;95.40;;;;;;5033623;28;20468;-75
2022/01/16 08:17:15;;;;;;;55.15;19.65;;;6.40;95.50;;;;;;5029905;28;20030;-75
2022/01/16 08:19:41;;;;;;;39.85;17.48;;;6.40;95.60;;;;;;5030779;28;20053;-75
2022/01/16 08:22:07;;;;;;;52.22;19.35;;;6.40;95.70;;;;;;5031303;28;20385;-75
2022/01/16 08:24:32;;;;;;;49.53;21.02;;;6.40;95.70;;;;;;5032268;28;20025;-75
2022/01/16 08:26:58;;;;;;;39.50;16.45;;;6.40;95.80;;;;;;5031028;28;20049;-75
2022/01/16 08:29:24;;;;;;;38.10;15.32;;;6.40;95.80;;;;;;5032325;28;20034;-74
2022/01/16 08:31:55;;;;;;;47.20;18.23;;;6.40;95.90;;;;;;5032428;28;20025;-75
2022/01/16 08:34:21;;;;;;;42.30;17.38;;;6.40;95.90;;;;;;5031568;28;20040;-76
2022/01/16 08:36:47;;;;;;;46.63;17.27;;;6.40;95.90;;;;;;5029242;28;20480;-75
2022/01/16 08:39:14;;;;;;;35.50;13.18;;;6.40;96.00;;;;;;5031789;28;20030;-72
2022/01/16 08:41:40;;;;;;;41.35;16.10;;;6.50;96.00;;;;;;5031133;28;20083;-72
2022/01/16 08:44:06;;;;;;;33.97;14.68;;;6.40;96.00;;;;;;5032035;28;20034;-76
2022/01/16 08:46:33;;;;;;;50.38;18.05;;;6.40;96.00;;;;;;5032280;28;20029;-72
2022/01/16 08:48:59;;;;;;;34.88;15.25;;;6.50;96.00;;;;;;5030286;28;20040;-72
2022/01/16 08:51:25;;;;;;;42.53;18.52;;;6.50;96.00;;;;;;5032196;28;20072;-72
2022/01/16 08:53:50;;;;;;;33.95;15.80;;;6.50;96.00;;;;;;5031107;28;20048;-72
2022/01/16 08:56:17;;;;;;;40.20;16.95;;;6.50;96.10;;;;;;5032300;28;20050;-72
2022/01/16 08:58:42;;;;;;;33.33;13.63;;;6.50;96.20;;;;;;5032075;28;20029;-72
2022/01/16 09:01:08;;;;;;;46.15;14.23;;;6.60;96.20;;;;;;5031097;28;20068;-72
2022/01/16 09:03:34;;;;;;;29.48;13.68;;;6.60;96.30;;;;;;5031501;28;20033;-72
2022/01/16 09:06:00;;;;;;;28.75;12.52;;;6.60;96.30;;;;;;5031675;28;20083;-73
2022/01/16 09:08:25;;;;;;;31.67;13.50;;;6.60;96.20;;;;;;5029957;28;20026;-73
2022/01/16 09:10:51;;;;;;;28.95;13.15;;;6.60;96.20;;;;;;5031855;28;20107;-73
2022/01/16 09:13:17;;;;;;;29.70;12.13;;;6.70;96.30;;;;;;5031945;28;20431;-73
2022/01/16 09:15:44;;;;;;;27.23;11.70;;;6.70;96.30;;;;;;5032214;28;20695;-73
2022/01/16 09:18:10;;;;;;;32.05;13.15;;;6.80;96.30;;;;;;5032683;28;20026;-74
2022/01/16 09:20:36;;;;;;;26.73;11.30;;;6.70;96.20;;;;;;5032972;28;20041;-74
2022/01/16 09:23:02;;;;;;;20.90;11.45;;;6.80;96.30;;;;;;5031997;28;20025;-73
2022/01/16 09:25:28;;;;;;;31.33;14.45;;;6.80;96.30;;;;;;5032011;28;20047;-74
2022/01/16 09:27:54;;;;;;;42.42;11.60;;;6.80;96.30;;;;;;5032542;28;20112;-73
2022/01/16 09:30:23;;;;;;;25.33;11.75;;;6.80;96.20;;;;;;5031346;28;20392;-72
2022/01/16 09:32:49;;;;;;;28.08;12.30;;;6.90;96.30;;;;;;5032517;28;20049;-73
2022/01/16 09:35:16;;;;;;;24.38;10.68;;;6.90;96.30;;;;;;5032626;28;20473;-72
2022/01/16 09:37:42;;;;;;;26.30;11.35;;;6.90;96.30;;;;;;5030375;28;20144;-72
2022/01/16 09:40:10;;;;;;;24.65;12.23;;;7.00;96.30;;;;;;5020076;28;20388;-72
2022/01/16 09:42:36;;;;;;;18.08;9.48;;;7.00;96.30;;;;;;5031077;28;20129;-73
2022/01/16 09:45:08;;;;;;;23.50;11.15;;;6.90;96.30;;;;;;5029983;28;20480;-73
2022/01/16 09:47:35;;;;;;;24.42;10.02;;;7.00;96.30;;;;;;5029418;28;20034;-73
2022/01/16 09:50:04;;;;;;;19.25;9.75;;;7.10;96.30;;;;;;5028297;28;20048;-73
2022/01/16 09:52:34;;;;;;;25.92;10.15;;;7.10;96.30;;;;;;5028377;28;20029;-73
2022/01/16 09:55:00;;;;;;;24.02;11.13;;;7.10;96.30;;;;;;5030867;28;20044;-73
2022/01/16 09:57:26;;;;;;;27.52;12.07;;;7.10;96.20;;;;;;5030207;28;20051;-73
2022/01/16 09:59:52;;;;;;;18.52;7.93;;;7.10;96.20;;;;;;5030650;28;20036;-73
2022/01/16 10:02:18;;;;;;;27.52;10.48;;;7.20;96.20;;;;;;5029181;28;20539;-73
2022/01/16 10:04:43;;;;;;;26.75;11.45;;;7.20;96.20;;;;;;5028571;28;20113;-74
2022/01/16 10:07:13;;;;;;;22.77;9.43;;;7.30;96.20;;;;;;5025560;28;20112;-73
2022/01/16 10:09:41;;;;;;;19.60;8.88;;;7.30;96.20;;;;;;5028173;28;20469;-75
2022/01/16 10:12:16;;;;;;;22.58;10.65;;;7.30;96.20;;;;;;5030835;28;20034;-74
2022/01/16 10:14:49;;;;;;;18.92;10.27;;;7.30;96.20;;;;;;5031150;28;20366;-76
2022/01/16 10:17:23;;;;;;;18.45;7.97;;;7.30;96.30;;;;;;5031477;28;20065;-73
2022/01/16 10:20:05;;;;;;;19.50;8.05;;;7.30;96.30;;;;;;5030804;28;20030;-74
2022/01/16 10:22:49;;;;;;;22.38;12.00;;;7.40;96.40;;;;;;5031277;28;20029;-74
2022/01/16 10:25:24;;;;;;;15.95;6.35;;;7.40;96.40;;;;;;5031341;28;20049;-73
2022/01/16 10:27:50;;;;;;;22.85;11.00;;;7.40;96.40;;;;;;5031993;28;20032;-71
2022/01/16 10:30:18;;;;;;;16.20;8.77;;;7.50;96.40;;;;;;5031154;28;20042;-71
2022/01/16 10:32:45;;;;;;;30.60;11.93;;;7.50;96.40;;;;;;5026712;28;20026;-70
2022/01/16 10:35:22;;;;;;;21.27;9.98;;;7.50;96.40;;;;;;5031306;28;20041;-71
2022/01/16 10:37:53;;;;;;;17.77;9.13;;;7.50;96.50;;;;;;5031262;28;20083;-73
2022/01/16 10:40:30;;;;;;;11.30;4.93;;;7.50;96.50;;;;;;5030188;28;20033;-72
2022/01/16 10:42:58;;;;;;;25.88;9.93;;;7.50;96.50;;;;;;5033959;28;20022;-71
2022/01/16 10:45:29;;;;;;;19.83;6.10;;;7.60;96.50;;;;;;5035958;28;20025;-72
2022/01/16 10:48:00;;;;;;;19.65;8.23;;;7.50;96.50;;;;;;5035423;28;20033;-72
2022/01/16 10:50:38;;;;;;;19.70;8.52;;;7.60;96.50;;;;;;5035506;28;20045;-73
2022/01/16 10:53:13;;;;;;;22.92;11.18;;;7.60;96.50;;;;;;5024475;28;20026;-71
2022/01/16 10:55:53;;;;;;;18.13;8.45;;;7.60;96.60;;;;;;5035502;28;20083;-70
2022/01/16 10:58:24;;;;;;;27.02;10.70;;;7.70;96.60;;;;;;5036094;28;20038;-71
2022/01/16 11:01:00;;;;;;;26.00;9.82;;;7.70;96.60;;;;;;5034911;28;20459;-70
2022/01/16 11:03:27;;;;;;;26.40;8.90;;;7.70;96.70;;;;;;5035270;28;20044;-72
2022/01/16 11:05:54;;;;;;;23.98;9.75;;;7.70;96.70;;;;;;5035813;28;20029;-70
2022/01/16 11:08:25;;;;;;;22.85;10.13;;;7.70;96.70;;;;;;5034696;28;20029;-72
2022/01/16 11:10:56;;;;;;;20.27;8.13;;;7.80;96.70;;;;;;5035583;28;20045;-70
2022/01/16 11:13:29;;;;;;;21.02;7.82;;;7.80;96.70;;;;;;5035263;28;20070;-71
2022/01/16 11:15:59;;;;;;;19.35;8.18;;;7.80;96.80;;;;;;5035093;28;20038;-72
2022/01/16 11:18:26;;;;;;;14.23;5.53;;;7.80;96.80;;;;;;5035103;28;20048;-68
2022/01/16 11:21:07;;;;;;;17.05;6.00;;;7.80;96.80;;;;;;5035565;28;20037;-70
2022/01/16 11:23:48;;;;;;;30.33;12.55;;;7.90;96.80;;;;;;5034532;28;20481;-71
2022/01/16 11:26:15;;;;;;;22.20;8.27;;;7.90;96.80;;;;;;5034757;28;20095;-72
2022/01/16 11:28:42;;;;;;;18.98;8.00;;;7.90;96.80;;;;;;5034370;28;20090;-72
2022/01/16 11:31:11;;;;;;;14.98;7.60;;;8.00;96.90;;;;;;5048311;28;20088;-72
2022/01/16 11:33:38;;;;;;;27.13;10.43;;;8.00;96.90;;;;;;5035328;28;20025;-72
2022/01/16 11:36:07;;;;;;;22.80;8.73;;;7.90;96.90;;;;;;5033205;28;20032;-73
2022/01/16 11:38:49;;;;;;;25.60;10.00;;;8.00;97.00;;;;;;5034527;28;20048;-76
2022/01/16 11:41:30;;;;;;;25.23;10.52;;;8.00;97.10;;;;;;5036344;28;20436;-80
2022/01/16 11:43:55;;;;;;;24.20;10.88;;;8.00;97.10;;;;;;5034116;28;20465;-72
2022/01/16 11:46:26;;;;;;;17.98;7.53;;;8.00;97.20;;;;;;5034615;28;20036;-72
2022/01/16 11:48:55;;;;;;;26.88;10.52;;;8.00;97.30;;;;;;5033918;28;20025;-72
2022/01/16 11:51:32;;;;;;;17.02;8.77;;;8.10;97.30;;;;;;5033154;28;20072;-72
2022/01/16 11:53:58;;;;;;;16.85;8.18;;;8.00;97.40;;;;;;5033556;28;20481;-72
2022/01/16 11:56:45;;;;;;;22.88;9.20;;;8.10;97.50;;;;;;5033989;28;20044;-70
2022/01/16 11:59:19;;;;;;;24.77;9.65;;;8.10;97.50;;;;;;5031903;28;20053;-71
2022/01/16 12:01:47;;;;;;;24.95;10.23;;;8.10;97.50;;;;;;5021522;28;20022;-71
2022/01/16 12:04:28;;;;;;;19.25;7.50;;;8.10;97.60;;;;;;5033329;28;20029;-70
2022/01/16 12:06:54;;;;;;;18.70;7.38;;;8.10;97.60;;;;;;5034689;28;20021;-70
2022/01/16 12:12:22;;;;;;;17.50;7.95;;;8.10;97.60;;;;;;5033669;28;20029;-71
2022/01/16 12:15:03;;;;;;;18.08;7.90;;;8.20;97.90;;;;;;5033311;28;20051;-71
2022/01/16 12:17:42;;;;;;;10.25;5.95;;;8.20;97.90;;;;;;5034141;28;20156;-72
2022/01/16 12:20:14;;;;;;;21.73;7.28;;;8.20;97.60;;;;;;5034441;28;20435;-71
2022/01/16 12:22:48;;;;;;;17.90;6.80;;;8.20;97.60;;;;;;5034095;28;20087;-71
2022/01/16 12:25:23;;;;;;;13.50;5.88;;;8.30;97.60;;;;;;5032756;28;20091;-71
2022/01/16 12:28:10;;;;;;;11.32;5.72;;;8.30;97.60;;;;;;5030898;28;20488;-75
2022/01/16 12:30:51;;;;;;;21.83;7.45;;;8.30;97.60;;;;;;5033016;28;20042;-71
2022/01/16 12:33:23;;;;;;;9.88;3.80;;;8.30;97.50;;;;;;5031619;28;20175;-71
2022/01/16 12:35:51;;;;;;;15.65;7.07;;;8.40;97.50;;;;;;5032227;28;20029;-70
2022/01/16 12:38:33;;;;;;;10.60;4.80;;;8.40;97.50;;;;;;5032451;28;20037;-71
2022/01/16 12:41:11;;;;;;;11.70;5.70;;;8.40;97.50;;;;;;5031536;28;20039;-71
2022/01/16 12:43:46;;;;;;;15.13;6.25;;;8.40;97.50;;;;;;5031957;28;20421;-71
2022/01/16 12:46:24;;;;;;;10.93;4.32;;;8.40;97.50;;;;;;5032060;28;20076;-72
2022/01/16 12:48:56;;;;;;;19.95;5.43;;;8.40;97.50;;;;;;5030849;28;20113;-72
2022/01/16 12:51:27;;;;;;;10.13;4.13;;;8.40;97.50;;;;;;5032584;28;20038;-73
2022/01/16 12:54:02;;;;;;;15.95;5.18;;;8.50;97.50;;;;;;5032033;28;20056;-72
2022/01/16 12:57:00;;;;;;;17.60;5.65;;;8.40;97.40;;;;;;5033090;28;20033;-71
2022/01/16 12:59:30;;;;;;;16.45;6.13;;;8.50;97.40;;;;;;5032098;28;20037;-71
2022/01/16 13:02:03;;;;;;;15.73;6.05;;;8.50;97.40;;;;;;5031415;28;20036;-70
2022/01/16 13:04:30;;;;;;;13.40;5.30;;;8.50;97.40;;;;;;5030018;28;20025;-72
2022/01/16 13:06:59;;;;;;;10.07;4.80;;;8.50;97.40;;;;;;5031729;28;20034;-72
2022/01/16 13:09:27;;;;;;;16.02;5.75;;;8.50;97.40;;;;;;5032092;28;20543;-71
2022/01/16 13:11:55;;;;;;;19.73;5.97;;;8.50;97.40;;;;;;5032710;28;20147;-72
2022/01/16 13:14:25;;;;;;;12.07;5.13;;;8.50;97.70;;;;;;5031185;28;20029;-72
2022/01/16 13:16:59;;;;;;;13.25;5.38;;;8.50;97.40;;;;;;5032163;28;20507;-72
2022/01/16 13:19:28;;;;;;;15.45;6.07;;;8.50;97.40;;;;;;5032268;28;20069;-70
2022/01/16 13:24:47;;;;;;;12.50;4.63;;;8.60;97.40;;;;;;5032333;28;20048;-72
2022/01/16 13:27:19;;;;;;;7.65;4.15;;;8.60;97.30;;;;;;5030803;28;20042;-72
2022/01/16 13:29:50;;;;;;;13.97;4.67;;;8.50;97.30;;;;;;5027405;28;20040;-72
2022/01/16 13:32:18;;;;;;;14.85;5.00;;;8.50;97.30;;;;;;5031003;28;20264;-72
2022/01/16 13:34:45;;;;;;;14.55;5.32;;;8.60;97.30;;;;;;5026944;28;20479;-76
2022/01/16 13:37:17;;;;;;;12.90;5.15;;;8.60;97.30;;;;;;5028712;28;20385;-76
2022/01/16 13:39:48;;;;;;;10.05;4.50;;;8.60;97.20;;;;;;5028636;28;20838;-72